Terminal Aerodrome Forecast
Issued by NWS

Home | Current Version | Previous Version | Text Only | Print | Product List | Glossary On
Versions: 1 2 3 4 5 6 7 8 9 10 11 12 13 14 15
562
FTUS41 KBGM 282332
TAFRME
TAF
KRME 282332Z 2900/2924 00000KT P6SM SCT250
     FM291500 21004KT P6SM BKN090
     FM291800 21006KT P6SM -SHRA BKN040 PROB30 2920/2924 TSRA
      BKN035CB=

USA.gov is the U.S. government's official web portal to all federal, state and local government web resources and services.